createdAt,value
2023-04-09T00:01:47.094Z,20.35
2023-04-09T00:03:52.185Z,20.45
2023-04-09T00:05:57.269Z,20.67
2023-04-09T00:08:02.210Z,21.27
2023-04-09T00:10:07.795Z,21.80
2023-04-09T00:12:13.468Z,19.65
2023-04-09T00:14:18.360Z,21.55
2023-04-09T00:16:26.248Z,22.80
2023-04-09T00:18:31.417Z,21.38
2023-04-09T00:20:36.698Z,22.15
2023-04-09T00:22:42.361Z,22.67
2023-04-09T00:24:47.588Z,22.52
2023-04-09T00:26:53.717Z,22.55
2023-04-09T00:28:58.754Z,22.23
2023-04-09T00:31:03.833Z,22.95
2023-04-09T00:33:12.261Z,22.25
2023-04-09T00:35:17.754Z,21.88
2023-04-09T00:37:22.977Z,23.70
2023-04-09T00:39:28.051Z,24.83
2023-04-09T00:41:33.188Z,24.05
2023-04-09T00:43:40.796Z,25.48
2023-04-09T00:45:47.301Z,23.05
2023-04-09T00:47:52.490Z,25.00
2023-04-09T00:50:00.973Z,23.70
2023-04-09T00:52:06.119Z,24.70
2023-04-09T00:54:12.297Z,23.98
2023-04-09T00:56:20.344Z,21.52
2023-04-09T00:58:28.126Z,21.13
2023-04-09T01:00:33.136Z,22.27
2023-04-09T01:02:38.631Z,22.08
2023-04-09T01:04:46.809Z,22.42
2023-04-09T01:06:58.510Z,21.48
2023-04-09T01:09:09.313Z,20.83
2023-04-09T01:11:26.032Z,20.50
2023-04-09T01:13:38.331Z,24.30
2023-04-09T01:15:50.231Z,23.92
2023-04-09T01:17:59.718Z,22.10
2023-04-09T01:20:12.625Z,23.27
2023-04-09T01:22:32.699Z,23.90
2023-04-09T01:24:47.622Z,23.08
2023-04-09T01:27:01.982Z,24.20
2023-04-09T01:29:10.827Z,25.73
2023-04-09T01:31:21.669Z,24.92
2023-04-09T01:33:31.618Z,23.13
2023-04-09T01:35:36.875Z,23.98
2023-04-09T01:37:43.743Z,26.80
2023-04-09T01:39:52.624Z,21.52
2023-04-09T01:41:59.062Z,22.15
2023-04-09T01:44:06.053Z,21.02
2023-04-09T01:46:15.408Z,22.17
2023-04-09T01:48:21.373Z,20.70
2023-04-09T01:50:26.770Z,19.77
2023-04-09T01:52:32.005Z,21.15
2023-04-09T01:54:37.199Z,23.15
2023-04-09T01:56:46.999Z,22.88
2023-04-09T01:58:52.876Z,21.50
2023-04-09T02:01:03.250Z,25.13
2023-04-09T02:03:14.548Z,22.77
2023-04-09T02:05:27.411Z,22.17
2023-04-09T02:07:42.210Z,22.02
2023-04-09T02:09:52.552Z,21.98
2023-04-09T02:12:00.121Z,22.88
2023-04-09T02:14:08.690Z,22.25
2023-04-09T02:16:17.079Z,22.40
2023-04-09T02:18:30.421Z,24.50
2023-04-09T02:20:35.332Z,23.10
2023-04-09T02:22:42.336Z,24.42
2023-04-09T02:24:51.588Z,24.27
2023-04-09T02:26:56.706Z,25.13
2023-04-09T02:29:30.345Z,25.98
2023-04-09T02:31:47.891Z,22.95
2023-04-09T02:34:27.654Z,22.52
2023-04-09T02:37:03.019Z,23.13
2023-04-09T02:39:30.860Z,22.98
2023-04-09T02:44:55.898Z,26.45
2023-04-09T02:47:19.218Z,23.60
2023-04-09T02:52:37.369Z,24.15
2023-04-09T02:55:09.650Z,24.05
2023-04-09T02:57:49.460Z,25.08
2023-04-09T03:00:12.513Z,26.05
2023-04-09T03:02:56.352Z,24.17
2023-04-09T03:05:33.867Z,22.88
2023-04-09T03:08:07.725Z,25.48
2023-04-09T03:10:54.435Z,24.90
2023-04-09T03:16:18.759Z,25.52
2023-04-09T03:19:21.222Z,23.75
2023-04-09T03:22:23.310Z,23.92
2023-04-09T03:25:09.718Z,26.00
2023-04-09T03:27:43.149Z,26.27
2023-04-09T03:30:06.946Z,28.38
2023-04-09T03:32:52.736Z,26.55
2023-04-09T03:35:25.238Z,26.00
2023-04-09T03:37:48.935Z,28.13
2023-04-09T03:40:13.286Z,28.48
2023-04-09T03:42:46.146Z,28.88
2023-04-09T03:45:16.910Z,25.80
2023-04-09T03:47:56.703Z,29.50
2023-04-09T03:50:58.637Z,28.13
2023-04-09T03:54:04.659Z,27.38
2023-04-09T04:02:39.131Z,28.23
2023-04-09T04:04:51.363Z,27.27
2023-04-09T04:07:23.745Z,30.63
2023-04-09T04:09:58.892Z,30.77
2023-04-09T04:12:47.461Z,26.60
2023-04-09T04:15:28.647Z,27.20
2023-04-09T04:18:18.586Z,29.30
2023-04-09T04:21:07.260Z,28.80
2023-04-09T04:26:23.865Z,33.03
2023-04-09T04:28:52.128Z,28.80
2023-04-09T04:34:09.681Z,28.95
2023-04-09T04:41:48.306Z,31.00
2023-04-09T04:44:29.215Z,29.15
2023-04-09T04:50:18.125Z,29.92
2023-04-09T04:52:48.275Z,32.17
2023-04-09T04:58:01.421Z,31.50
2023-04-09T05:00:56.953Z,28.52
2023-04-09T05:05:51.929Z,25.48
2023-04-09T05:11:00.853Z,26.00
2023-04-09T05:16:15.914Z,26.92
2023-04-09T05:33:42.597Z,27.42
2023-04-09T05:36:08.060Z,27.77
2023-04-09T05:38:50.103Z,27.20
2023-04-09T05:41:40.495Z,27.25
2023-04-09T05:46:52.785Z,25.77
2023-04-09T05:52:52.150Z,24.20
2023-04-09T05:55:16.968Z,24.30
2023-04-09T06:00:55.894Z,24.50
2023-04-09T06:03:57.259Z,23.42
2023-04-09T06:11:42.881Z,23.20
2023-04-09T06:14:48.349Z,23.88
2023-04-09T06:17:16.536Z,23.50
2023-04-09T06:25:42.482Z,25.02
2023-04-09T06:27:47.611Z,24.15
2023-04-09T06:29:52.710Z,24.48
2023-04-09T06:31:58.066Z,24.38
2023-04-09T06:34:03.141Z,25.05
2023-04-09T06:36:10.760Z,25.05
2023-04-09T06:38:18.810Z,24.88
2023-04-09T06:40:26.567Z,24.90
2023-04-09T06:42:31.514Z,24.02
2023-04-09T06:44:37.110Z,26.90
2023-04-09T06:46:42.987Z,22.48
2023-04-09T06:55:03.001Z,24.67
2023-04-09T06:57:36.940Z,24.90
2023-04-09T07:02:48.400Z,24.15
2023-04-09T07:04:53.501Z,28.30
2023-04-09T07:06:59.492Z,27.02
2023-04-09T07:09:04.774Z,24.88
2023-04-09T07:11:12.588Z,25.80
2023-04-09T07:15:31.966Z,26.92
2023-04-09T07:17:37.648Z,27.08
2023-04-09T07:19:43.623Z,26.10
2023-04-09T07:21:48.703Z,30.13
2023-04-09T07:23:54.816Z,30.88
2023-04-09T07:26:01.207Z,29.20
2023-04-09T07:28:06.697Z,29.50
2023-04-09T07:30:17.507Z,28.00
2023-04-09T07:32:22.545Z,28.45
2023-04-09T07:34:27.678Z,30.48
2023-04-09T07:36:32.647Z,32.30
2023-04-09T07:38:37.985Z,29.27
2023-04-09T07:40:43.433Z,31.95
2023-04-09T07:42:51.431Z,30.02
2023-04-09T07:44:56.979Z,32.55
2023-04-09T07:47:26.246Z,33.00
2023-04-09T07:50:17.008Z,33.08
2023-04-09T07:55:44.064Z,32.50
2023-04-09T07:58:27.984Z,32.83
2023-04-09T08:00:39.811Z,31.40
2023-04-09T08:03:17.099Z,30.38
2023-04-09T08:06:09.931Z,34.45
2023-04-09T08:08:46.517Z,31.50
2023-04-09T08:11:43.661Z,35.10
2023-04-09T08:14:18.000Z,28.92
2023-04-09T08:16:47.411Z,32.90
2023-04-09T08:19:47.840Z,31.73
2023-04-09T08:28:20.170Z,29.25
2023-04-09T08:38:51.698Z,31.90
2023-04-09T08:41:39.154Z,28.88
2023-04-09T08:43:57.790Z,30.38
2023-04-09T08:46:08.539Z,29.45
2023-04-09T08:48:17.054Z,32.05
2023-04-09T08:50:22.863Z,32.47
2023-04-09T08:52:37.190Z,33.53
2023-04-09T08:54:46.681Z,32.63
2023-04-09T08:56:52.557Z,32.05
2023-04-09T08:58:58.977Z,33.53
2023-04-09T09:01:05.041Z,31.98
2023-04-09T09:03:15.409Z,32.92
2023-04-09T09:05:20.740Z,32.75
2023-04-09T09:07:26.197Z,33.72
2023-04-09T09:09:33.822Z,31.45
2023-04-09T09:11:39.740Z,34.05
2023-04-09T09:14:13.091Z,36.17
2023-04-09T09:16:34.272Z,33.17
2023-04-09T09:18:50.846Z,31.45
2023-04-09T09:21:27.546Z,31.20
2023-04-09T09:23:57.166Z,30.00
2023-04-09T09:26:16.755Z,29.95
2023-04-09T09:28:23.540Z,30.65
2023-04-09T09:30:29.968Z,29.75
2023-04-09T09:32:35.094Z,33.30
2023-04-09T09:34:40.218Z,36.30
2023-04-09T09:36:48.741Z,36.05
2023-04-09T09:39:00.823Z,36.55
2023-04-09T09:41:23.318Z,38.67
2023-04-09T09:43:28.542Z,33.72
2023-04-09T09:45:33.741Z,36.75
2023-04-09T09:47:39.814Z,37.08
2023-04-09T09:49:47.486Z,36.80
2023-04-09T09:51:52.618Z,33.97
2023-04-09T09:54:00.125Z,36.20
2023-04-09T09:56:07.806Z,37.63
2023-04-09T09:58:28.246Z,34.42
2023-04-09T10:00:36.203Z,34.10
2023-04-09T10:05:36.748Z,34.28
2023-04-09T10:07:42.399Z,31.92
2023-04-09T10:10:02.008Z,32.85
2023-04-09T10:14:58.738Z,34.42
2023-04-09T10:17:17.169Z,32.45
2023-04-09T10:19:24.451Z,36.05
2023-04-09T10:22:02.344Z,34.42
2023-04-09T10:24:12.601Z,35.15
2023-04-09T10:26:18.314Z,31.08
2023-04-09T10:29:02.903Z,35.17
2023-04-09T10:31:48.062Z,36.42
2023-04-09T10:33:54.169Z,35.13
2023-04-09T10:36:28.609Z,33.85
2023-04-09T10:38:54.954Z,34.17
2023-04-09T10:40:59.927Z,32.95
2023-04-09T10:43:06.296Z,35.03
2023-04-09T10:48:07.039Z,32.20
2023-04-09T10:50:22.192Z,35.00
2023-04-09T10:52:35.418Z,33.97
2023-04-09T10:58:50.488Z,32.42
2023-04-09T11:17:01.597Z,36.08
2023-04-09T11:19:08.099Z,33.05
2023-04-09T11:22:05.318Z,32.03
2023-04-09T11:24:11.076Z,32.15
2023-04-09T11:26:17.329Z,33.50
2023-04-09T11:28:23.926Z,34.35
2023-04-09T11:43:04.669Z,33.87
2023-04-09T11:49:22.341Z,31.40
2023-04-09T11:51:31.992Z,33.25
2023-04-09T11:53:59.233Z,33.15
2023-04-09T11:56:04.622Z,36.30
2023-04-09T12:03:20.737Z,32.55
2023-04-09T12:05:31.534Z,35.78
2023-04-09T12:07:38.052Z,36.22
2023-04-09T12:09:51.748Z,33.38
2023-04-09T12:12:00.364Z,35.83
2023-04-09T12:14:17.771Z,35.05
2023-04-09T12:19:32.823Z,35.45
2023-04-09T12:21:56.213Z,36.97
2023-04-09T12:26:11.671Z,35.53
2023-04-09T12:28:21.975Z,33.40
2023-04-09T12:51:02.016Z,31.90
2023-04-09T12:54:12.949Z,30.25
2023-04-09T13:03:10.356Z,28.55
2023-04-09T13:21:17.668Z,28.33
2023-04-09T13:23:22.991Z,28.35
2023-04-09T13:35:13.643Z,31.17
2023-04-09T13:37:42.899Z,25.30
2023-04-09T13:39:52.872Z,26.75
2023-04-09T13:42:14.333Z,27.50
2023-04-09T13:44:23.730Z,27.08
2023-04-09T13:46:29.619Z,26.67
2023-04-09T13:48:35.258Z,26.77
2023-04-09T13:50:41.034Z,26.58
2023-04-09T13:52:51.620Z,26.17
2023-04-09T13:54:56.927Z,25.25
2023-04-09T13:57:05.457Z,24.85
2023-04-09T13:59:12.216Z,27.67
2023-04-09T14:01:22.646Z,26.92
2023-04-09T14:03:30.738Z,25.98
2023-04-09T14:05:36.968Z,28.00
2023-04-09T14:07:47.300Z,25.58
2023-04-09T14:09:57.174Z,25.77
2023-04-09T14:12:04.871Z,24.70
2023-04-09T14:14:10.973Z,23.80
2023-04-09T14:16:18.678Z,23.55
2023-04-09T14:19:46.936Z,22.45
2023-04-09T14:21:53.496Z,23.73
2023-04-09T14:23:58.775Z,22.23
2023-04-09T14:26:07.393Z,22.30
2023-04-09T14:28:17.849Z,24.20
2023-04-09T14:30:22.876Z,20.88
2023-04-09T14:32:27.952Z,21.35
2023-04-09T14:34:34.822Z,22.13
2023-04-09T14:36:39.674Z,21.25
2023-04-09T14:38:45.908Z,21.92
2023-04-09T14:40:52.195Z,20.98
2023-04-09T14:42:59.791Z,19.90
2023-04-09T14:45:05.116Z,21.65
2023-04-09T14:47:10.196Z,19.48
2023-04-09T14:49:18.342Z,20.00
2023-04-09T14:51:23.359Z,20.25
2023-04-09T14:53:30.443Z,20.70
2023-04-09T14:55:35.346Z,19.42
2023-04-09T14:57:42.266Z,18.55
2023-04-09T14:59:51.341Z,18.33
2023-04-09T15:01:56.968Z,17.42
2023-04-09T15:04:04.669Z,18.35
2023-04-09T15:06:10.152Z,18.77
2023-04-09T15:08:26.752Z,18.35
2023-04-09T15:10:31.774Z,17.35
2023-04-09T15:12:54.765Z,17.92
2023-04-09T15:15:16.304Z,17.33
2023-04-09T15:17:31.607Z,16.15
2023-04-09T15:19:37.095Z,16.73
2023-04-09T15:21:56.243Z,16.92
2023-04-09T15:24:02.926Z,16.80
2023-04-09T15:26:08.129Z,17.15
2023-04-09T15:28:18.898Z,15.85
2023-04-09T15:30:26.929Z,15.70
2023-04-09T15:32:35.764Z,15.45
2023-04-09T15:35:02.351Z,14.23
2023-04-09T15:37:13.131Z,15.63
2023-04-09T15:39:20.939Z,16.42
2023-04-09T15:41:27.202Z,15.60
2023-04-09T15:43:32.417Z,16.85
2023-04-09T15:45:40.228Z,15.55
2023-04-09T15:47:50.583Z,16.73
2023-04-09T15:50:06.483Z,15.20
2023-04-09T15:52:42.301Z,14.95
2023-04-09T15:55:02.922Z,15.52
2023-04-09T15:57:12.161Z,16.00
2023-04-09T15:59:22.760Z,14.98
2023-04-09T16:01:34.096Z,14.48
2023-04-09T16:03:42.642Z,15.00
2023-04-09T16:06:25.725Z,15.15
2023-04-09T16:08:58.996Z,14.90
2023-04-09T16:11:10.874Z,15.75
2023-04-09T16:13:56.401Z,15.90
2023-04-09T16:16:21.955Z,15.10
2023-04-09T16:18:57.787Z,15.23
2023-04-09T16:21:32.766Z,15.32
2023-04-09T16:23:47.693Z,14.45
2023-04-09T16:26:02.672Z,14.88
2023-04-09T16:28:40.965Z,13.73
2023-04-09T16:30:48.285Z,14.10
2023-04-09T16:32:54.017Z,14.43
2023-04-09T16:35:03.726Z,13.40
2023-04-09T16:37:09.273Z,14.52
2023-04-09T16:39:37.807Z,13.70
2023-04-09T16:41:46.503Z,14.38
2023-04-09T16:43:55.552Z,13.95
2023-04-09T16:46:21.124Z,14.20
2023-04-09T16:48:44.921Z,13.50
2023-04-09T16:51:28.819Z,15.57
2023-04-09T16:53:51.363Z,13.80
2023-04-09T16:56:13.336Z,13.82
2023-04-09T16:59:09.446Z,12.75
2023-04-09T17:01:30.598Z,13.82
2023-04-09T17:03:35.735Z,13.15
2023-04-09T17:05:42.287Z,14.05
2023-04-09T17:07:53.304Z,14.02
2023-04-09T17:10:00.706Z,13.63
2023-04-09T17:12:05.714Z,12.60
2023-04-09T17:14:44.911Z,14.27
2023-04-09T17:17:13.180Z,12.95
2023-04-09T17:19:19.252Z,13.38
2023-04-09T17:21:48.767Z,13.88
2023-04-09T17:24:14.386Z,13.43
2023-04-09T17:26:27.846Z,14.07
2023-04-09T17:28:33.748Z,14.20
2023-04-09T17:30:57.976Z,13.98
2023-04-09T17:33:03.537Z,13.15
2023-04-09T17:35:20.471Z,13.80
2023-04-09T17:37:36.784Z,12.90
2023-04-09T17:39:56.576Z,13.20
2023-04-09T17:42:08.139Z,12.63
2023-04-09T17:44:28.760Z,13.23
2023-04-09T17:46:40.410Z,14.05
2023-04-09T17:49:06.316Z,12.90
2023-04-09T17:51:40.050Z,14.65
2023-04-09T17:53:49.398Z,12.93
2023-04-09T17:59:16.680Z,14.00
2023-04-09T18:02:02.701Z,14.07
2023-04-09T18:04:09.457Z,14.93
2023-04-09T18:06:55.503Z,13.50
2023-04-09T18:09:03.384Z,13.48
2023-04-09T18:11:53.785Z,13.13
2023-04-09T18:14:11.343Z,14.77
2023-04-09T18:16:29.316Z,13.05
2023-04-09T18:18:47.333Z,13.77
2023-04-09T18:21:05.645Z,14.63
2023-04-09T18:23:20.908Z,12.77
2023-04-09T18:25:29.334Z,13.63
2023-04-09T18:27:41.447Z,13.45
2023-04-09T18:29:49.439Z,13.60
2023-04-09T18:31:59.051Z,13.15
2023-04-09T18:34:04.275Z,13.50
2023-04-09T18:36:13.459Z,14.00
2023-04-09T18:38:19.881Z,14.50
2023-04-09T18:40:32.498Z,13.18
2023-04-09T18:42:54.949Z,13.88
2023-04-09T18:45:00.181Z,13.70
2023-04-09T18:47:07.706Z,12.77
2023-04-09T18:49:13.199Z,12.55
2023-04-09T18:51:20.697Z,12.45
2023-04-09T18:53:27.964Z,12.55
2023-04-09T18:55:33.031Z,13.02
2023-04-09T18:57:45.604Z,12.68
2023-04-09T18:59:52.486Z,12.98
2023-04-09T19:01:58.907Z,13.02
2023-04-09T19:04:04.085Z,12.63
2023-04-09T19:06:25.895Z,12.20
2023-04-09T19:08:36.557Z,12.10
2023-04-09T19:10:42.733Z,13.27
2023-04-09T19:12:54.043Z,13.60
2023-04-09T19:15:01.131Z,12.98
2023-04-09T19:17:06.231Z,11.90
2023-04-09T19:19:11.263Z,12.52
2023-04-09T19:21:18.061Z,12.05
2023-04-09T19:23:24.011Z,12.52
2023-04-09T19:25:29.517Z,12.45
2023-04-09T19:27:34.688Z,12.80
2023-04-09T19:29:42.378Z,13.82
2023-04-09T19:31:47.382Z,13.25
2023-04-09T19:33:53.527Z,11.85
2023-04-09T19:35:58.772Z,13.65
2023-04-09T19:38:05.073Z,13.38
2023-04-09T19:40:11.796Z,12.15
2023-04-09T19:42:16.692Z,13.25
2023-04-09T19:44:27.388Z,13.75
2023-04-09T19:46:41.163Z,13.35
2023-04-09T19:48:48.410Z,13.48
2023-04-09T19:50:55.646Z,12.43
2023-04-09T19:53:00.621Z,13.98
2023-04-09T19:55:05.693Z,13.18
2023-04-09T19:57:11.302Z,13.45
2023-04-09T19:59:18.193Z,12.88
2023-04-09T20:01:26.146Z,13.40
2023-04-09T20:03:35.418Z,12.38
2023-04-09T20:05:43.866Z,11.10
2023-04-09T20:07:59.821Z,11.90
2023-04-09T20:10:08.536Z,12.73
2023-04-09T20:12:13.817Z,12.32
2023-04-09T20:14:23.799Z,12.32
2023-04-09T20:16:32.860Z,13.48
2023-04-09T20:18:41.178Z,11.75
2023-04-09T20:20:49.384Z,11.90
2023-04-09T20:22:56.901Z,11.60
2023-04-09T20:25:02.724Z,12.45
2023-04-09T20:27:08.126Z,12.25
2023-04-09T20:29:13.366Z,11.52
2023-04-09T20:31:28.127Z,12.02
2023-04-09T20:33:33.352Z,12.70
2023-04-09T20:35:42.991Z,11.32
2023-04-09T20:37:49.423Z,10.55
2023-04-09T20:40:02.452Z,11.05
2023-04-09T20:42:08.002Z,10.98
2023-04-09T20:44:12.968Z,11.63
2023-04-09T20:46:18.072Z,11.25
2023-04-09T20:48:23.802Z,10.75
2023-04-09T20:50:29.708Z,11.25
2023-04-09T20:52:37.745Z,11.60
2023-04-09T20:54:43.319Z,11.15
2023-04-09T20:56:48.349Z,10.52
2023-04-09T20:58:54.215Z,10.63
2023-04-09T21:01:06.870Z,10.52
2023-04-09T21:03:12.113Z,11.63
2023-04-09T21:05:23.434Z,11.20
2023-04-09T21:07:29.472Z,10.40
2023-04-09T21:09:39.726Z,9.43
2023-04-09T21:11:46.339Z,10.07
2023-04-09T21:13:55.372Z,10.88
2023-04-09T21:16:00.887Z,10.10
2023-04-09T21:18:06.074Z,10.20
2023-04-09T21:20:15.747Z,12.40
2023-04-09T21:22:21.098Z,11.32
2023-04-09T21:24:27.147Z,9.70
2023-04-09T21:26:49.282Z,9.80
2023-04-09T21:28:56.967Z,10.93
2023-04-09T21:31:04.959Z,9.57
2023-04-09T21:33:11.471Z,11.10
2023-04-09T21:35:21.391Z,9.90
2023-04-09T21:37:29.197Z,10.05
2023-04-09T21:39:39.921Z,11.05
2023-04-09T21:41:47.814Z,11.70
2023-04-09T21:43:56.420Z,10.65
2023-04-09T21:46:02.695Z,10.73
2023-04-09T21:48:10.589Z,9.70
2023-04-09T21:50:18.122Z,9.88
2023-04-09T21:52:26.528Z,10.73
2023-04-09T21:54:31.864Z,9.73
2023-04-09T21:56:39.528Z,10.23
2023-04-09T21:58:47.927Z,9.65
2023-04-09T22:00:53.835Z,10.57
2023-04-09T22:03:01.781Z,10.25
2023-04-09T22:05:07.863Z,10.55
2023-04-09T22:07:14.355Z,10.07
2023-04-09T22:09:19.738Z,11.10
2023-04-09T22:11:28.628Z,10.90
2023-04-09T22:13:33.828Z,11.23
2023-04-09T22:15:42.156Z,10.02
2023-04-09T22:17:47.846Z,11.95
2023-04-09T22:19:53.625Z,9.82
2023-04-09T22:21:58.963Z,11.32
2023-04-09T22:24:06.566Z,11.52
2023-04-09T22:26:14.514Z,10.52
2023-04-09T22:28:29.360Z,10.32
2023-04-09T22:30:34.306Z,10.85
2023-04-09T22:32:41.825Z,11.63
2023-04-09T22:34:46.964Z,11.13
2023-04-09T22:36:52.711Z,10.80
2023-04-09T22:38:57.746Z,11.38
2023-04-09T22:41:04.136Z,12.35
2023-04-09T22:43:09.312Z,11.93
2023-04-09T22:45:17.246Z,10.80
2023-04-09T22:47:22.446Z,10.13
2023-04-09T22:49:30.165Z,11.40
2023-04-09T22:51:36.649Z,11.88
2023-04-09T22:53:41.689Z,12.10
2023-04-09T22:55:51.220Z,10.93
2023-04-09T22:57:58.228Z,10.80
2023-04-09T23:00:05.403Z,11.98
2023-04-09T23:02:10.694Z,12.18
2023-04-09T23:04:24.518Z,11.60
2023-04-09T23:06:32.242Z,10.57
2023-04-09T23:08:38.823Z,11.07
2023-04-09T23:10:46.035Z,9.10
2023-04-09T23:12:50.999Z,10.98
2023-04-09T23:14:57.420Z,10.32
2023-04-09T23:17:16.842Z,10.00
2023-04-09T23:19:32.518Z,10.43
2023-04-09T23:21:43.210Z,9.20
2023-04-09T23:23:48.230Z,8.93
2023-04-09T23:25:53.984Z,10.07
2023-04-09T23:28:01.356Z,10.38
2023-04-09T23:30:07.090Z,10.50
2023-04-09T23:32:18.932Z,10.70
2023-04-09T23:34:24.138Z,10.32
2023-04-09T23:36:29.408Z,10.57
2023-04-09T23:38:37.294Z,9.82
2023-04-09T23:40:42.281Z,9.77
2023-04-09T23:42:48.370Z,9.45
2023-04-09T23:44:53.891Z,9.65
2023-04-09T23:46:58.841Z,9.55
2023-04-09T23:49:05.952Z,8.65
2023-04-09T23:51:11.121Z,10.02
2023-04-09T23:53:17.605Z,8.65
2023-04-09T23:55:25.403Z,8.70
2023-04-09T23:57:30.846Z,9.23
2023-04-09T23:59:36.587Z,9.48
